Time;durP1;ratioP1;P1;durP2;ratioP2;P2;SDS_P1;SDS_P2;PMS_P1;PMS_P2;Temp;Humidity;BMP_temperature;BMP_pressure;BME280_temperature;BME280_humidity;BME280_pressure;Samples;Min_cycle;Max_cycle;Signal;HPM_P1;HPM_P2
2022/04/26 03:37:59;;;;;;;12.63;5.27;;;;;;;;;;5053927;28;20451;-73
2022/04/26 03:40:43;;;;;;;10.63;5.70;;;;;;;;;;5066160;28;20561;-73
2022/04/26 03:43:10;;;;;;;10.67;6.07;;;;;;;;;;5067778;28;20815;-74
2022/04/26 03:45:37;;;;;;;12.80;5.93;;;;;;;;;;5070144;28;20555;-74
2022/04/26 03:48:04;;;;;;;11.30;6.47;;;;;;;;;;5055886;28;20450;-73
2022/04/26 03:50:31;;;;;;;11.87;6.60;;;;;;;;;;5048408;28;20453;-74
2022/04/26 03:52:58;;;;;;;10.40;6.37;;;;;;;;;;5033526;28;20429;-75
2022/04/26 03:55:25;;;;;;;14.43;7.37;;;;;;;;;;5049757;28;20457;-74
2022/04/26 03:57:52;;;;;;;12.10;6.87;;;;;;;;;;5032924;28;21275;-74
2022/04/26 04:00:19;;;;;;;17.90;8.73;;;;;;;;;;5040493;28;20457;-74
2022/04/26 04:02:46;;;;;;;14.03;7.67;;;;;;;;;;5021012;28;20871;-76
2022/04/26 04:05:17;;;;;;;15.17;7.20;;;;;;;;;;5052689;28;20468;-77
2022/04/26 04:07:44;;;;;;;9.40;6.10;;;;;;;;;;5056424;28;20456;-77
2022/04/26 04:10:11;;;;;;;9.80;6.20;;;;;;;;;;5060666;28;20479;-75
2022/04/26 04:12:38;;;;;;;14.10;6.77;;;;;;;;;;5062840;28;20554;-76
2022/04/26 04:15:05;;;;;;;10.87;5.60;;;;;;;;;;5036182;28;20522;-76
2022/04/26 04:17:33;;;;;;;10.83;6.03;;;;;;;;;;5046457;28;20484;-76
2022/04/26 04:19:59;;;;;;;11.00;5.67;;;;;;;;;;5062373;28;20553;-76
2022/04/26 04:22:27;;;;;;;9.37;5.60;;;;;;;;;;5060989;28;20456;-75
2022/04/26 04:24:55;;;;;;;7.83;5.50;;;;;;;;;;5062311;28;20482;-75
2022/04/26 04:27:22;;;;;;;6.83;4.77;;;;;;;;;;5045002;28;20578;-77
2022/04/26 04:29:51;;;;;;;6.57;4.73;;;;;;;;;;5047445;28;20448;-75
2022/04/26 04:32:18;;;;;;;9.57;5.60;;;;;;;;;;5061621;28;20495;-74
2022/04/26 04:34:46;;;;;;;6.83;5.07;;;;;;;;;;5062469;28;20459;-73
2022/04/26 04:37:14;;;;;;;8.83;5.40;;;;;;;;;;5054024;28;20445;-77
2022/04/26 04:39:42;;;;;;;7.63;5.13;;;;;;;;;;5058247;28;20285;-73
2022/04/26 04:42:11;;;;;;;11.27;5.20;;;;;;;;;;5045381;28;20740;-73
2022/04/26 04:44:55;;;;;;;8.03;5.00;;;;;;;;;;5056163;28;20167;-77
2022/04/26 04:47:23;;;;;;;10.10;4.67;;;;;;;;;;5035880;28;20210;-78
2022/04/26 04:50:08;;;;;;;7.53;4.67;;;;;;;;;;5059632;28;20174;-76
2022/04/26 04:52:36;;;;;;;6.40;4.17;;;;;;;;;;5035959;28;20262;-76
2022/04/26 04:55:03;;;;;;;5.80;4.37;;;;;;;;;;5052331;28;20202;-76
2022/04/26 04:57:29;;;;;;;4.70;4.10;;;;;;;;;;5053640;28;20241;-76
2022/04/26 04:59:59;;;;;;;6.43;4.00;;;;;;;;;;5056603;28;20178;-78
2022/04/26 05:02:26;;;;;;;6.63;4.00;;;;;;;;;;5052074;28;20242;-81
2022/04/26 05:04:53;;;;;;;6.83;4.30;;;;;;;;;;5052655;28;20219;-74
2022/04/26 05:07:21;;;;;;;7.10;3.77;;;;;;;;;;5056911;28;20767;-78
2022/04/26 05:09:50;;;;;;;7.20;3.87;;;;;;;;;;5046760;28;20205;-76
2022/04/26 05:12:18;;;;;;;5.13;4.10;;;;;;;;;;5029389;28;20708;-75
2022/04/26 05:14:45;;;;;;;5.17;3.50;;;;;;;;;;5052794;28;20235;-74
2022/04/26 05:17:12;;;;;;;3.67;2.93;;;;;;;;;;5045140;28;20213;-75
2022/04/26 05:19:39;;;;;;;4.67;3.60;;;;;;;;;;5058366;28;20207;-76
2022/04/26 05:22:08;;;;;;;7.30;3.97;;;;;;;;;;5027281;28;20252;-75
2022/04/26 05:24:54;;;;;;;6.23;4.07;;;;;;;;;;5050462;28;20393;-75
2022/04/26 05:27:22;;;;;;;6.87;3.77;;;;;;;;;;5063542;28;20194;-74
2022/04/26 05:29:49;;;;;;;5.63;3.17;;;;;;;;;;5048045;28;20566;-75
2022/04/26 05:32:19;;;;;;;5.67;3.67;;;;;;;;;;5061694;28;20193;-75
2022/04/26 05:34:47;;;;;;;4.70;3.77;;;;;;;;;;5056532;28;20320;-75
2022/04/26 05:37:14;;;;;;;4.30;3.00;;;;;;;;;;5044794;28;20194;-75
2022/04/26 05:39:44;;;;;;;6.30;3.30;;;;;;;;;;5060095;28;20204;-74
2022/04/26 05:42:11;;;;;;;6.47;2.63;;;;;;;;;;5065602;28;20821;-74
2022/04/26 05:44:38;;;;;;;4.97;2.70;;;;;;;;;;5055588;28;20293;-75
2022/04/26 05:47:06;;;;;;;4.53;2.77;;;;;;;;;;5055149;28;20625;-74
2022/04/26 05:49:33;;;;;;;7.77;4.87;;;;;;;;;;5056500;28;20203;-73
2022/04/26 05:52:01;;;;;;;9.07;2.47;;;;;;;;;;5027560;28;20280;-73
2022/04/26 05:54:29;;;;;;;2.97;2.53;;;;;;;;;;5047036;28;20553;-73
2022/04/26 05:56:56;;;;;;;3.87;2.73;;;;;;;;;;5045208;28;20232;-74
2022/04/26 05:59:23;;;;;;;7.23;3.27;;;;;;;;;;5046648;28;20198;-76
2022/04/26 06:01:50;;;;;;;3.37;2.30;;;;;;;;;;5056929;28;20279;-75
2022/04/26 06:04:17;;;;;;;5.07;2.90;;;;;;;;;;5062642;28;20290;-75
2022/04/26 06:06:45;;;;;;;3.53;2.60;;;;;;;;;;5046183;28;20225;-75
2022/04/26 06:09:13;;;;;;;3.63;2.57;;;;;;;;;;5046583;28;20174;-74
2022/04/26 06:11:40;;;;;;;4.73;2.73;;;;;;;;;;5046998;28;20197;-73
2022/04/26 06:14:07;;;;;;;5.47;2.93;;;;;;;;;;5048658;28;20187;-73
2022/04/26 06:16:34;;;;;;;6.93;3.60;;;;;;;;;;5030171;28;20202;-75
2022/04/26 06:19:02;;;;;;;5.27;3.43;;;;;;;;;;5060584;28;20811;-73
2022/04/26 06:21:31;;;;;;;8.23;4.97;;;;;;;;;;5029723;28;20275;-74
2022/04/26 06:23:57;;;;;;;14.87;10.17;;;;;;;;;;5043999;28;20186;-73
2022/04/26 06:26:24;;;;;;;73.57;41.40;;;;;;;;;;5058679;28;20590;-75
2022/04/26 06:28:52;;;;;;;96.80;53.33;;;;;;;;;;5030638;28;20210;-75
2022/04/26 06:31:19;;;;;;;15.27;8.63;;;;;;;;;;5048574;28;20314;-76
2022/04/26 06:33:46;;;;;;;8.67;4.90;;;;;;;;;;5041148;28;20194;-72
2022/04/26 06:36:13;;;;;;;6.03;3.83;;;;;;;;;;5032559;28;20190;-74
2022/04/26 06:38:40;;;;;;;46.63;30.10;;;;;;;;;;5029531;28;20222;-73
2022/04/26 06:41:07;;;;;;;8.07;4.43;;;;;;;;;;5030037;28;20253;-73
2022/04/26 06:43:35;;;;;;;4.67;2.50;;;;;;;;;;5044939;28;20187;-73
2022/04/26 06:46:02;;;;;;;11.17;3.40;;;;;;;;;;5029320;28;20196;-75
2022/04/26 06:48:30;;;;;;;9.53;2.73;;;;;;;;;;5047781;28;20266;-78
2022/04/26 06:50:57;;;;;;;9.20;3.20;;;;;;;;;;5043102;28;20660;-78
2022/04/26 06:53:25;;;;;;;6.10;2.63;;;;;;;;;;5043871;28;20241;-75
2022/04/26 06:55:53;;;;;;;10.33;2.63;;;;;;;;;;5044975;28;20193;-75
2022/04/26 06:58:21;;;;;;;11.90;3.07;;;;;;;;;;5045229;28;20217;-80
2022/04/26 07:00:50;;;;;;;7.63;2.40;;;;;;;;;;5041337;28;20287;-71
2022/04/26 07:03:18;;;;;;;4.73;2.10;;;;;;;;;;5040292;28;20213;-70
2022/04/26 07:05:45;;;;;;;6.93;2.30;;;;;;;;;;5041629;28;20282;-71
2022/04/26 07:08:12;;;;;;;6.60;1.93;;;;;;;;;;5039885;28;20629;-72
2022/04/26 07:10:43;;;;;;;10.03;2.20;;;;;;;;;;5038018;28;20198;-73
2022/04/26 07:13:11;;;;;;;5.73;2.00;;;;;;;;;;5044928;28;20665;-74
2022/04/26 07:15:38;;;;;;;4.57;2.00;;;;;;;;;;5050064;28;20194;-74
2022/04/26 07:18:05;;;;;;;2.77;1.50;;;;;;;;;;5047435;28;20252;-74
2022/04/26 07:20:36;;;;;;;3.20;1.50;;;;;;;;;;5056449;28;20229;-74
2022/04/26 07:23:03;;;;;;;3.77;1.60;;;;;;;;;;5053162;28;20190;-74
2022/04/26 07:25:30;;;;;;;4.80;1.50;;;;;;;;;;5055055;28;20653;-74
2022/04/26 07:27:57;;;;;;;5.93;1.50;;;;;;;;;;5042826;28;20709;-75
2022/04/26 07:30:34;;;;;;;2.63;1.20;;;;;;;;;;5067376;28;20216;-74
2022/04/26 07:35:50;;;;;;;7.93;2.17;;;;;;;;;;5030205;28;20242;-74
2022/04/26 07:38:17;;;;;;;4.13;1.63;;;;;;;;;;5032079;28;20187;-75
2022/04/26 07:40:44;;;;;;;3.83;1.60;;;;;;;;;;5031970;28;20206;-74
2022/04/26 07:43:11;;;;;;;2.17;1.37;;;;;;;;;;5066108;28;20210;-75
2022/04/26 07:45:38;;;;;;;1.80;1.23;;;;;;;;;;5053636;28;20316;-75
2022/04/26 07:48:06;;;;;;;1.73;1.43;;;;;;;;;;5067298;28;20225;-74
2022/04/26 07:50:33;;;;;;;2.20;1.17;;;;;;;;;;5051358;28;20187;-75
2022/04/26 07:53:17;;;;;;;2.17;1.20;;;;;;;;;;5053533;28;20257;-73
2022/04/26 07:55:44;;;;;;;1.50;1.37;;;;;;;;;;5053198;28;20677;-74
2022/04/26 07:58:30;;;;;;;1.90;1.30;;;;;;;;;;5054300;28;20285;-75
2022/04/26 08:00:56;;;;;;;2.53;1.30;;;;;;;;;;5067897;28;20231;-75
2022/04/26 08:03:23;;;;;;;1.50;1.30;;;;;;;;;;5055067;28;20226;-74
2022/04/26 08:05:52;;;;;;;1.73;1.50;;;;;;;;;;5035698;28;20209;-75
2022/04/26 08:08:19;;;;;;;2.97;1.60;;;;;;;;;;5044822;28;20221;-74
2022/04/26 08:10:50;;;;;;;2.77;1.20;;;;;;;;;;5059347;28;20201;-74
2022/04/26 08:13:17;;;;;;;2.03;1.27;;;;;;;;;;5068943;28;20198;-75
2022/04/26 08:15:44;;;;;;;1.63;1.37;;;;;;;;;;5039747;28;20203;-75
2022/04/26 08:18:11;;;;;;;4.60;1.70;;;;;;;;;;5062349;28;20182;-74
2022/04/26 08:20:38;;;;;;;2.67;1.40;;;;;;;;;;5052119;28;20187;-74
2022/04/26 08:23:06;;;;;;;1.20;1.10;;;;;;;;;;5058685;28;20234;-74
2022/04/26 08:28:21;;;;;;;2.23;1.07;;;;;;;;;;5056562;28;20198;-73
2022/04/26 08:30:48;;;;;;;3.03;1.40;;;;;;;;;;5029920;28;20653;-74
2022/04/26 08:33:16;;;;;;;1.50;1.30;;;;;;;;;;5057808;28;20268;-74
2022/04/26 08:35:43;;;;;;;3.47;1.40;;;;;;;;;;5040355;28;20510;-73
2022/04/26 08:38:30;;;;;;;3.27;1.30;;;;;;;;;;5042666;28;20191;-74
2022/04/26 08:40:56;;;;;;;2.23;1.30;;;;;;;;;;5035897;28;20190;-74
2022/04/26 08:43:27;;;;;;;3.27;1.60;;;;;;;;;;5056552;28;20195;-74
2022/04/26 08:45:58;;;;;;;4.70;1.70;;;;;;;;;;5050396;28;20237;-74
2022/04/26 08:51:12;;;;;;;2.93;1.40;;;;;;;;;;5058185;28;20754;-73
2022/04/26 08:53:39;;;;;;;2.27;1.40;;;;;;;;;;5052184;28;20667;-74
2022/04/26 08:56:08;;;;;;;3.30;1.50;;;;;;;;;;5059230;28;20194;-74
2022/04/26 08:58:35;;;;;;;2.53;1.50;;;;;;;;;;5062016;28;20554;-74
2022/04/26 09:01:18;;;;;;;1.80;1.37;;;;;;;;;;5066341;28;20225;-73
2022/04/26 09:04:10;;;;;;;2.40;1.60;;;;;;;;;;5055292;28;20221;-73
2022/04/26 09:06:45;;;;;;;3.57;2.00;;;;;;;;;;5062947;28;20183;-73
2022/04/26 09:09:13;;;;;;;2.57;1.50;;;;;;;;;;5050365;28;20653;-72
2022/04/26 09:11:40;;;;;;;2.73;1.70;;;;;;;;;;5055496;28;20257;-73
2022/04/26 09:14:11;;;;;;;3.53;1.67;;;;;;;;;;5065624;28;20261;-73
2022/04/26 09:16:38;;;;;;;5.77;1.50;;;;;;;;;;5055743;28;20681;-74
2022/04/26 09:19:22;;;;;;;3.10;1.37;;;;;;;;;;5043461;28;20167;-72
2022/04/26 09:21:52;;;;;;;3.87;1.70;;;;;;;;;;5056635;28;20177;-73
2022/04/26 09:24:20;;;;;;;4.57;1.50;;;;;;;;;;5064751;28;20221;-73
2022/04/26 09:26:46;;;;;;;3.90;1.57;;;;;;;;;;5064569;28;20192;-73
2022/04/26 09:29:19;;;;;;;3.03;1.70;;;;;;;;;;5056132;28;20187;-73
2022/04/26 09:31:46;;;;;;;4.47;1.60;;;;;;;;;;5036368;28;20685;-73
2022/04/26 09:34:13;;;;;;;3.93;1.90;;;;;;;;;;5047885;28;20197;-71
2022/04/26 09:36:48;;;;;;;3.53;1.80;;;;;;;;;;5052771;28;20192;-73
2022/04/26 09:39:18;;;;;;;4.20;1.47;;;;;;;;;;5048379;28;20198;-74
2022/04/26 09:42:06;;;;;;;3.97;1.67;;;;;;;;;;5024203;28;20281;-72
2022/04/26 09:44:33;;;;;;;6.20;1.80;;;;;;;;;;5044653;28;20190;-73
2022/04/26 09:47:00;;;;;;;5.50;2.10;;;;;;;;;;5058581;28;20190;-73
2022/04/26 09:49:34;;;;;;;5.43;1.90;;;;;;;;;;5051021;28;20194;-74
2022/04/26 09:52:02;;;;;;;5.20;1.80;;;;;;;;;;5052175;28;20183;-73
2022/04/26 09:54:32;;;;;;;4.27;1.77;;;;;;;;;;5052436;28;20273;-73
2022/04/26 09:56:59;;;;;;;3.40;1.87;;;;;;;;;;5065712;28;20182;-73
2022/04/26 09:59:44;;;;;;;3.50;1.70;;;;;;;;;;5054303;28;20166;-73
2022/04/26 10:02:13;;;;;;;4.33;1.90;;;;;;;;;;5034745;28;20657;-73
2022/04/26 10:04:45;;;;;;;2.63;1.70;;;;;;;;;;5069084;28;20218;-74
2022/04/26 10:07:13;;;;;;;3.03;1.83;;;;;;;;;;5055203;28;20731;-73
2022/04/26 10:09:40;;;;;;;2.57;1.67;;;;;;;;;;5039375;28;20214;-73
2022/04/26 10:12:07;;;;;;;3.37;1.70;;;;;;;;;;5071922;28;20266;-74
2022/04/26 10:14:34;;;;;;;1.83;1.27;;;;;;;;;;5060831;28;20222;-73
2022/04/26 10:17:19;;;;;;;2.37;1.70;;;;;;;;;;5067049;28;20181;-74
2022/04/26 10:19:47;;;;;;;3.90;1.63;;;;;;;;;;5021210;28;20236;-74
2022/04/26 10:22:50;;;;;;;2.07;1.40;;;;;;;;;;5055849;28;20574;-74
2022/04/26 10:25:21;;;;;;;3.57;1.40;;;;;;;;;;5038637;28;20713;-74
2022/04/26 10:28:08;;;;;;;14.83;3.10;;;;;;;;;;5005598;28;20244;-75
2022/04/26 10:30:47;;;;;;;3.60;1.40;;;;;;;;;;5043348;28;20639;-74
2022/04/26 10:33:36;;;;;;;2.60;1.60;;;;;;;;;;5049743;28;20653;-75
2022/04/26 10:36:20;;;;;;;1.90;1.50;;;;;;;;;;5024616;28;20582;-75
2022/04/26 10:39:15;;;;;;;3.50;1.43;;;;;;;;;;5050459;28;20178;-74
2022/04/26 10:41:45;;;;;;;2.17;1.30;;;;;;;;;;5066700;28;20178;-74
2022/04/26 10:44:13;;;;;;;2.07;1.63;;;;;;;;;;5057462;28;20265;-73
2022/04/26 10:46:50;;;;;;;2.27;1.53;;;;;;;;;;5042483;28;20190;-74
2022/04/26 10:49:24;;;;;;;4.00;1.60;;;;;;;;;;5066722;28;20301;-73
2022/04/26 10:52:22;;;;;;;1.70;1.60;;;;;;;;;;5055644;28;20660;-71
2022/04/26 10:55:03;;;;;;;2.23;1.80;;;;;;;;;;5051492;28;20186;-74
2022/04/26 10:57:34;;;;;;;3.13;1.43;;;;;;;;;;5067746;28;20186;-74
2022/04/26 11:00:09;;;;;;;2.67;1.60;;;;;;;;;;5057479;28;20221;-73
2022/04/26 11:02:50;;;;;;;3.00;1.70;;;;;;;;;;5039935;28;20198;-73
2022/04/26 11:05:35;;;;;;;2.90;2.00;;;;;;;;;;5011297;28;20266;-73
2022/04/26 11:08:06;;;;;;;1.77;1.40;;;;;;;;;;5013245;28;20762;-74
2022/04/26 11:11:07;;;;;;;2.00;1.70;;;;;;;;;;5030454;28;20596;-74
2022/04/26 11:13:41;;;;;;;4.00;1.70;;;;;;;;;;5013517;28;20198;-74
2022/04/26 11:16:25;;;;;;;2.43;1.40;;;;;;;;;;5016282;28;20658;-74
2022/04/26 11:19:01;;;;;;;2.47;1.70;;;;;;;;;;5030059;28;20196;-73
2022/04/26 11:21:46;;;;;;;3.63;1.40;;;;;;;;;;5019215;28;20251;-74
2022/04/26 11:29:57;;;;;;;2.10;1.37;;;;;;;;;;5020070;28;20668;-74
2022/04/26 11:32:52;;;;;;;4.30;1.33;;;;;;;;;;5032160;28;20244;-72
2022/04/26 11:35:20;;;;;;;1.47;1.37;;;;;;;;;;4993760;28;20285;-76
2022/04/26 11:37:53;;;;;;;1.67;1.23;;;;;;;;;;5018487;28;20204;-74
2022/04/26 11:40:42;;;;;;;1.30;1.20;;;;;;;;;;5040436;28;20201;-72
2022/04/26 11:43:10;;;;;;;1.83;1.20;;;;;;;;;;5018641;28;20201;-73
2022/04/26 11:45:40;;;;;;;2.77;1.60;;;;;;;;;;5015943;28;20253;-73
2022/04/26 11:48:09;;;;;;;2.73;1.30;;;;;;;;;;5021841;28;20223;-76
2022/04/26 11:50:41;;;;;;;1.93;1.30;;;;;;;;;;5021639;28;20214;-75
2022/04/26 11:53:08;;;;;;;2.07;1.43;;;;;;;;;;5039446;28;20199;-76
2022/04/26 11:55:37;;;;;;;3.13;1.53;;;;;;;;;;5037106;28;20207;-76
2022/04/26 11:58:22;;;;;;;3.80;1.17;;;;;;;;;;5036817;28;20180;-75
2022/04/26 12:01:00;;;;;;;3.30;1.23;;;;;;;;;;5038608;28;20192;-76
2022/04/26 12:03:43;;;;;;;5.93;1.50;;;;;;;;;;5034250;28;21480;-77
2022/04/26 12:06:13;;;;;;;4.73;1.10;;;;;;;;;;5030842;28;20203;-73
2022/04/26 12:08:50;;;;;;;5.20;1.20;;;;;;;;;;5008473;28;20250;-75
2022/04/26 12:11:22;;;;;;;2.47;1.50;;;;;;;;;;5034609;28;20195;-76
2022/04/26 12:14:11;;;;;;;1.77;1.20;;;;;;;;;;5031449;28;20202;-75
2022/04/26 12:16:42;;;;;;;1.37;1.10;;;;;;;;;;5032747;28;20179;-62
2022/04/26 12:19:11;;;;;;;2.90;1.40;;;;;;;;;;5028807;28;20180;-62
2022/04/26 12:21:44;;;;;;;7.10;1.47;;;;;;;;;;5030597;28;20190;-62
2022/04/26 12:24:13;;;;;;;11.47;1.87;;;;;;;;;;5029101;28;20184;-63
2022/04/26 12:27:00;;;;;;;2.47;1.00;;;;;;;;;;5034744;28;20191;-75
2022/04/26 12:29:48;;;;;;;1.20;1.10;;;;;;;;;;5026792;28;20610;-73
2022/04/26 12:32:23;;;;;;;1.60;0.87;;;;;;;;;;5025536;28;20290;-74
2022/04/26 12:34:54;;;;;;;2.23;1.23;;;;;;;;;;4974209;28;20228;-75
2022/04/26 12:37:32;;;;;;;1.50;0.90;;;;;;;;;;5025323;28;20215;-75
2022/04/26 12:40:09;;;;;;;2.27;1.03;;;;;;;;;;5013819;28;20195;-77
2022/04/26 12:42:42;;;;;;;1.87;1.37;;;;;;;;;;5037582;28;20198;-78
2022/04/26 12:45:31;;;;;;;2.07;1.20;;;;;;;;;;5016037;28;20205;-76
2022/04/26 12:50:55;;;;;;;1.77;1.20;;;;;;;;;;5037264;28;20187;-77
2022/04/26 12:53:35;;;;;;;6.00;1.70;;;;;;;;;;5016976;28;20208;-74
2022/04/26 12:56:32;;;;;;;3.83;1.10;;;;;;;;;;5015830;28;20184;-76
2022/04/26 12:59:03;;;;;;;1.43;1.10;;;;;;;;;;5037695;28;20182;-75
2022/04/26 13:01:31;;;;;;;1.60;1.03;;;;;;;;;;5032951;28;20192;-77
2022/04/26 13:03:58;;;;;;;8.30;2.00;;;;;;;;;;5014697;28;20230;-76
2022/04/26 13:06:26;;;;;;;1.77;1.03;;;;;;;;;;5026709;28;20183;-76
2022/04/26 13:09:15;;;;;;;3.07;1.33;;;;;;;;;;5040033;28;20246;-77
2022/04/26 13:11:43;;;;;;;1.57;1.20;;;;;;;;;;5027686;28;20210;-76
2022/04/26 13:14:10;;;;;;;1.97;1.40;;;;;;;;;;5024912;28;20205;-76
2022/04/26 13:16:57;;;;;;;3.53;1.27;;;;;;;;;;5026652;28;20191;-76
2022/04/26 13:19:24;;;;;;;1.57;1.17;;;;;;;;;;5024810;28;20187;-79
2022/04/26 13:21:51;;;;;;;1.73;1.30;;;;;;;;;;5009550;28;21405;-72
2022/04/26 13:24:22;;;;;;;1.67;1.00;;;;;;;;;;5041055;28;20267;-74
2022/04/26 13:27:07;;;;;;;1.63;1.27;;;;;;;;;;5025465;28;20196;-77
2022/04/26 13:29:34;;;;;;;1.50;1.37;;;;;;;;;;5008865;28;20219;-77
2022/04/26 13:32:18;;;;;;;2.37;1.30;;;;;;;;;;5026149;28;20167;-76
2022/04/26 13:34:46;;;;;;;4.33;1.50;;;;;;;;;;5011032;28;20258;-75
2022/04/26 13:37:17;;;;;;;5.43;1.47;;;;;;;;;;5026487;28;20315;-76
2022/04/26 13:39:45;;;;;;;2.40;1.30;;;;;;;;;;5026168;28;20621;-77
2022/04/26 13:42:12;;;;;;;3.67;1.33;;;;;;;;;;5023621;28;20205;-76
2022/04/26 13:44:40;;;;;;;2.20;1.23;;;;;;;;;;5022194;28;20903;-76
2022/04/26 13:47:08;;;;;;;3.57;1.30;;;;;;;;;;5008422;28;20200;-78
2022/04/26 13:49:35;;;;;;;2.30;1.40;;;;;;;;;;5007584;28;20708;-77
2022/04/26 13:52:03;;;;;;;4.27;1.80;;;;;;;;;;5006780;28;20210;-77
2022/04/26 13:54:30;;;;;;;4.10;1.40;;;;;;;;;;5012479;28;20194;-76
2022/04/26 13:56:59;;;;;;;1.60;1.40;;;;;;;;;;5024787;28;20195;-73
2022/04/26 13:59:26;;;;;;;6.00;2.03;;;;;;;;;;5023860;28;20203;-75
2022/04/26 14:01:53;;;;;;;3.20;1.37;;;;;;;;;;5024305;28;20187;-72
2022/04/26 14:04:20;;;;;;;3.80;1.30;;;;;;;;;;5012545;28;20225;-75
2022/04/26 14:06:47;;;;;;;1.70;1.30;;;;;;;;;;5034089;28;20203;-75
2022/04/26 14:09:15;;;;;;;2.53;1.53;;;;;;;;;;5028829;28;20215;-76
2022/04/26 14:11:42;;;;;;;4.37;1.47;;;;;;;;;;5016094;28;20223;-76
2022/04/26 14:22:32;;;;;;;3.30;1.70;;;;;;;;;;5028133;28;20176;-77
2022/04/26 14:25:08;;;;;;;2.60;1.40;;;;;;;;;;5019490;28;20222;-77
2022/04/26 14:27:35;;;;;;;5.33;1.93;;;;;;;;;;5029907;28;20186;-78
2022/04/26 14:30:03;;;;;;;3.33;1.70;;;;;;;;;;5018921;28;20215;-75
2022/04/26 14:32:50;;;;;;;6.00;2.37;;;;;;;;;;5031404;28;20226;-78
2022/04/26 14:35:17;;;;;;;3.13;1.57;;;;;;;;;;5009789;28;20238;-75
2022/04/26 14:37:53;;;;;;;5.07;1.43;;;;;;;;;;5002065;28;20183;-78
2022/04/26 14:40:20;;;;;;;3.03;1.80;;;;;;;;;;5034447;28;20647;-76
2022/04/26 14:42:48;;;;;;;2.40;2.17;;;;;;;;;;5020516;28;20657;-76
2022/04/26 14:45:14;;;;;;;1.60;1.40;;;;;;;;;;5014153;28;20204;-79
2022/04/26 14:47:41;;;;;;;2.20;1.50;;;;;;;;;;5011496;28;20191;-75
2022/04/26 14:50:14;;;;;;;3.17;1.77;;;;;;;;;;4992628;28;20710;-78
2022/04/26 14:52:42;;;;;;;2.77;1.50;;;;;;;;;;5014269;28;20183;-76
2022/04/26 14:55:10;;;;;;;2.63;1.57;;;;;;;;;;5007742;28;20324;-79
2022/04/26 14:57:37;;;;;;;4.00;1.40;;;;;;;;;;5034717;28;20226;-77
2022/04/26 15:00:05;;;;;;;2.60;1.60;;;;;;;;;;5029960;28;20207;-77
2022/04/26 15:02:39;;;;;;;4.60;1.70;;;;;;;;;;5038452;28;20225;-77
2022/04/26 15:05:26;;;;;;;2.00;1.33;;;;;;;;;;5015994;28;20724;-75
2022/04/26 15:10:41;;;;;;;4.50;1.90;;;;;;;;;;5032567;28;20233;-77
2022/04/26 15:18:40;;;;;;;5.70;2.90;;;;;;;;;;5055379;28;20270;-77
2022/04/26 15:21:09;;;;;;;6.47;4.30;;;;;;;;;;5038335;28;20233;-78
2022/04/26 15:23:35;;;;;;;3.87;2.10;;;;;;;;;;5067117;28;20709;-73
2022/04/26 15:26:06;;;;;;;5.70;3.20;;;;;;;;;;5049253;28;20240;-72
2022/04/26 15:28:34;;;;;;;3.00;2.47;;;;;;;;;;5060292;28;20291;-73
2022/04/26 15:31:01;;;;;;;3.07;2.20;;;;;;;;;;5038750;28;20183;-73
2022/04/26 15:33:28;;;;;;;2.50;1.83;;;;;;;;;;5031996;28;20284;-73
2022/04/26 15:35:56;;;;;;;2.67;2.07;;;;;;;;;;5042342;28;20226;-73
2022/04/26 15:38:23;;;;;;;3.40;2.13;;;;;;;;;;5061500;28;20191;-73
2022/04/26 15:40:50;;;;;;;2.10;1.90;;;;;;;;;;5048707;28;20183;-73
2022/04/26 15:43:22;;;;;;;2.83;2.20;;;;;;;;;;5058150;28;20185;-72
2022/04/26 15:45:49;;;;;;;3.60;2.20;;;;;;;;;;5053928;28;20665;-72
2022/04/26 15:48:17;;;;;;;3.40;2.17;;;;;;;;;;5044496;28;20674;-72
2022/04/26 15:50:45;;;;;;;3.20;1.80;;;;;;;;;;5037462;28;20199;-68
2022/04/26 15:53:12;;;;;;;2.63;1.80;;;;;;;;;;5050822;28;20309;-72
2022/04/26 15:55:39;;;;;;;2.03;1.83;;;;;;;;;;5022709;28;20962;-72
2022/04/26 15:58:06;;;;;;;4.23;2.00;;;;;;;;;;5052126;28;20268;-73
2022/04/26 16:00:33;;;;;;;2.40;1.80;;;;;;;;;;5046274;28;20191;-71
2022/04/26 16:03:01;;;;;;;2.60;1.90;;;;;;;;;;5048654;28;20273;-71
2022/04/26 16:05:29;;;;;;;3.90;1.90;;;;;;;;;;5047720;28;20207;-72
2022/04/26 16:07:55;;;;;;;8.27;2.60;;;;;;;;;;5036806;28;20209;-71
2022/04/26 16:21:30;;;;;;;3.70;2.70;;;;;;;;;;5052225;28;20202;-72
2022/04/26 16:23:57;;;;;;;2.73;2.10;;;;;;;;;;5052096;28;20210;-72
2022/04/26 16:26:24;;;;;;;3.27;2.17;;;;;;;;;;5037772;28;20241;-72
2022/04/26 16:28:53;;;;;;;4.20;2.10;;;;;;;;;;5053510;28;20210;-61
2022/04/26 16:31:38;;;;;;;3.37;2.40;;;;;;;;;;5069510;28;20191;-62
2022/04/26 16:34:06;;;;;;;3.60;2.30;;;;;;;;;;5067441;28;20187;-61
2022/04/26 16:36:51;;;;;;;6.37;2.33;;;;;;;;;;5053951;28;20241;-61
2022/04/26 16:39:18;;;;;;;3.30;2.20;;;;;;;;;;5057481;28;20511;-71
2022/04/26 16:42:02;;;;;;;3.97;2.30;;;;;;;;;;5035525;28;20600;-72
2022/04/26 16:44:29;;;;;;;4.93;2.60;;;;;;;;;;5045030;28;20207;-68
2022/04/26 16:46:58;;;;;;;4.07;2.73;;;;;;;;;;5042375;28;20235;-68
2022/04/26 16:49:25;;;;;;;4.27;2.60;;;;;;;;;;5044068;28;20214;-69
2022/04/26 16:51:52;;;;;;;5.43;2.73;;;;;;;;;;5043722;28;20230;-69
2022/04/26 16:54:36;;;;;;;4.37;2.57;;;;;;;;;;5044532;28;20304;-68
2022/04/26 16:57:04;;;;;;;5.53;2.83;;;;;;;;;;5044672;28;20217;-70
2022/04/26 16:59:31;;;;;;;3.13;2.50;;;;;;;;;;5027999;28;20253;-68
2022/04/26 17:01:58;;;;;;;4.80;3.00;;;;;;;;;;5028095;28;21499;-68
2022/04/26 17:04:26;;;;;;;6.20;3.43;;;;;;;;;;5037753;28;20226;-68
2022/04/26 17:06:54;;;;;;;6.57;2.83;;;;;;;;;;5015975;28;20780;-68
2022/04/26 17:09:21;;;;;;;8.57;5.77;;;;;;;;;;5033218;28;20241;-68
2022/04/26 17:11:48;;;;;;;10.20;8.23;;;;;;;;;;5032338;28;20233;-68
2022/04/26 17:14:35;;;;;;;8.13;4.87;;;;;;;;;;5031858;28;20173;-68
2022/04/26 17:17:04;;;;;;;13.60;8.17;;;;;;;;;;5029979;28;20184;-68
2022/04/26 17:19:31;;;;;;;5.07;2.80;;;;;;;;;;5032440;28;20589;-69
2022/04/26 17:21:59;;;;;;;8.20;3.87;;;;;;;;;;5033319;28;20330;-69
2022/04/26 17:27:13;;;;;;;7.73;4.80;;;;;;;;;;5034265;28;20322;-68
2022/04/26 17:29:40;;;;;;;4.40;3.70;;;;;;;;;;5012592;28;20199;-69
2022/04/26 17:32:12;;;;;;;9.40;4.60;;;;;;;;;;5035543;28;20202;-69
2022/04/26 17:34:50;;;;;;;6.57;3.40;;;;;;;;;;5032925;28;20189;-69
2022/04/26 17:37:16;;;;;;;6.80;4.73;;;;;;;;;;5030823;28;20316;-69
2022/04/26 17:39:43;;;;;;;11.33;8.23;;;;;;;;;;5016242;28;20198;-67
2022/04/26 17:42:10;;;;;;;27.17;17.17;;;;;;;;;;5034662;28;20215;-69
2022/04/26 17:44:37;;;;;;;27.50;16.07;;;;;;;;;;5016847;28;20225;-69
2022/04/26 17:47:08;;;;;;;18.67;11.80;;;;;;;;;;5032404;28;20191;-69
2022/04/26 17:49:55;;;;;;;27.27;15.10;;;;;;;;;;5029241;28;20214;-69
2022/04/26 17:52:23;;;;;;;26.27;15.33;;;;;;;;;;5032650;28;20196;-69
2022/04/26 17:57:37;;;;;;;52.43;15.47;;;;;;;;;;5032486;28;20186;-69
2022/04/26 18:00:07;;;;;;;31.43;20.33;;;;;;;;;;5015180;28;20187;-69
2022/04/26 18:02:41;;;;;;;33.93;20.40;;;;;;;;;;5032550;28;20234;-69
2022/04/26 18:05:09;;;;;;;28.60;15.87;;;;;;;;;;5050353;28;20227;-69
2022/04/26 18:07:36;;;;;;;24.07;10.57;;;;;;;;;;5020193;28;20218;-69
2022/04/26 18:10:04;;;;;;;21.83;11.03;;;;;;;;;;5040918;28;20272;-68
2022/04/26 18:12:32;;;;;;;24.57;10.33;;;;;;;;;;5025810;28;20284;-68
2022/04/26 18:14:58;;;;;;;25.17;12.27;;;;;;;;;;5045564;28;20199;-68
2022/04/26 18:17:25;;;;;;;29.50;12.43;;;;;;;;;;5042519;28;21645;-69
2022/04/26 18:19:53;;;;;;;28.53;13.63;;;;;;;;;;5044856;28;20326;-69
2022/04/26 18:22:19;;;;;;;21.57;11.03;;;;;;;;;;5052147;28;20179;-69
2022/04/26 18:24:47;;;;;;;20.50;9.17;;;;;;;;;;5052024;28;20189;-68
2022/04/26 18:27:14;;;;;;;20.67;10.97;;;;;;;;;;5050016;28;20190;-69
2022/04/26 18:29:41;;;;;;;21.80;9.10;;;;;;;;;;5033733;28;20600;-69
2022/04/26 18:32:08;;;;;;;18.33;9.33;;;;;;;;;;5034336;28;20191;-68
2022/04/26 18:34:35;;;;;;;11.93;6.17;;;;;;;;;;5034352;28;20240;-68
2022/04/26 18:37:02;;;;;;;16.23;8.50;;;;;;;;;;5051871;28;20277;-68
2022/04/26 18:39:29;;;;;;;33.40;9.90;;;;;;;;;;5051819;28;20618;-68
2022/04/26 18:41:57;;;;;;;21.30;7.90;;;;;;;;;;5051623;28;20269;-68
2022/04/26 18:44:24;;;;;;;22.60;7.53;;;;;;;;;;5047756;28;20195;-68
2022/04/26 18:46:50;;;;;;;96.50;13.70;;;;;;;;;;5030625;28;20180;-69
2022/04/26 18:49:35;;;;;;;44.90;10.10;;;;;;;;;;5009657;28;20275;-71
2022/04/26 18:52:02;;;;;;;60.10;11.87;;;;;;;;;;5041417;28;20249;-71
2022/04/26 18:54:29;;;;;;;34.97;9.70;;;;;;;;;;5043254;28;20191;-70
2022/04/26 18:56:56;;;;;;;45.67;10.23;;;;;;;;;;5042388;28;20198;-70
2022/04/26 18:59:24;;;;;;;35.30;9.33;;;;;;;;;;5042452;28;20210;-70
2022/04/26 19:01:51;;;;;;;29.73;8.30;;;;;;;;;;5045427;28;20481;-67
2022/04/26 19:04:19;;;;;;;26.27;9.87;;;;;;;;;;5031452;28;20572;-67
2022/04/26 19:06:45;;;;;;;35.97;10.23;;;;;;;;;;5031364;28;20230;-67
2022/04/26 19:09:13;;;;;;;32.80;9.40;;;;;;;;;;5031562;28;20543;-67
2022/04/26 19:14:25;;;;;;;28.33;8.47;;;;;;;;;;5031532;28;20458;-67
2022/04/26 19:16:52;;;;;;;21.43;8.53;;;;;;;;;;5031329;28;20809;-67
2022/04/26 19:19:19;;;;;;;14.47;7.87;;;;;;;;;;5030368;28;20206;-67
2022/04/26 19:21:46;;;;;;;20.43;8.00;;;;;;;;;;5031316;28;20537;-67
2022/04/26 19:24:14;;;;;;;19.57;9.03;;;;;;;;;;5031458;28;20514;-67
2022/04/26 19:26:41;;;;;;;21.10;8.70;;;;;;;;;;5031281;28;20561;-67
2022/04/26 19:29:26;;;;;;;33.37;11.10;;;;;;;;;;5033578;28;20998;-67